Time,TemperatureF,DewpointF,PressureIn,WindDirection,WindDirectionDegrees,WindSpeedMPH,WindSpeedGustMPH,Humidity,HourlyPrecipIn,Conditions,Clouds,dailyrainin,SolarRadiationWatts/m^2,SoftwareType,DateUTC
2013-07-30 00:02:00,65.0,29.0,-100.00,ESE,117,0.0,4.0,26,0.00,,,0.00,0.000000,,2013-07-30 06:02:00,
2013-07-30 00:12:00,65.0,29.0,-100.00,ESE,117,0.0,4.0,26,0.00,,,0.00,0.000000,,2013-07-30 06:12:00,
2013-07-30 00:22:00,65.0,29.0,-100.00,ESE,117,0.0,4.0,26,0.00,,,0.00,0.000000,,2013-07-30 06:22:00,
2013-07-30 00:53:00,60.0,28.0,-100.00,SSW,200,0.0,3.0,30,0.00,,,0.00,0.000000,,2013-07-30 06:53:00,
2013-07-30 01:02:00,60.0,28.0,-100.00,SSW,200,0.0,3.0,30,0.00,,,0.00,0.000000,,2013-07-30 07:02:00,
2013-07-30 01:13:00,60.0,28.0,-100.00,SSW,200,0.0,3.0,30,0.00,,,0.00,0.000000,,2013-07-30 07:13:00,
2013-07-30 01:22:00,60.0,28.0,-100.00,SSW,200,0.0,3.0,30,0.00,,,0.00,0.000000,,2013-07-30 07:22:00,
2013-07-30 01:53:00,59.0,28.0,-100.00,NNW,338,0.0,3.0,31,0.00,,,0.00,0.000000,,2013-07-30 07:53:00,
2013-07-30 02:03:00,59.0,28.0,-100.00,NNW,338,0.0,3.0,31,0.00,,,0.00,0.000000,,2013-07-30 08:03:00,
2013-07-30 02:12:00,59.0,28.0,-100.00,NNW,338,0.0,3.0,31,0.00,,,0.00,0.000000,,2013-07-30 08:12:00,
2013-07-30 02:22:00,59.0,28.0,-100.00,NNW,338,0.0,3.0,31,0.00,,,0.00,0.000000,,2013-07-30 08:22:00,
2013-07-30 02:53:00,55.0,28.0,-100.00,NNE,24,0.0,0.0,35,0.00,,,0.00,0.000000,,2013-07-30 08:53:00,
2013-07-30 03:02:00,55.0,28.0,-100.00,NNE,24,0.0,0.0,35,0.00,,,0.00,0.000000,,2013-07-30 09:02:00,
2013-07-30 03:12:00,55.0,28.0,-100.00,NNE,24,0.0,0.0,35,0.00,,,0.00,0.000000,,2013-07-30 09:12:00,
2013-07-30 03:22:00,55.0,28.0,-100.00,NNE,24,0.0,0.0,35,0.00,,,0.00,0.000000,,2013-07-30 09:22:00,
2013-07-30 03:53:00,54.0,28.0,-100.00,ENE,60,1.0,3.0,37,0.00,,,0.00,0.000000,,2013-07-30 09:53:00,
2013-07-30 04:02:00,54.0,28.0,-100.00,ENE,60,1.0,3.0,37,0.00,,,0.00,0.000000,,2013-07-30 10:02:00,
2013-07-30 04:12:00,54.0,28.0,-100.00,ENE,60,1.0,3.0,37,0.00,,,0.00,0.000000,,2013-07-30 10:12:00,
2013-07-30 04:22:00,54.0,28.0,-100.00,ENE,60,1.0,3.0,37,0.00,,,0.00,0.000000,,2013-07-30 10:22:00,
2013-07-30 04:52:00,60.0,28.0,-100.00,North,352,1.0,15.0,29,0.00,,,0.00,0.000000,,2013-07-30 10:52:00,
2013-07-30 05:02:00,60.0,28.0,-100.00,North,352,1.0,15.0,29,0.00,,,0.00,0.000000,,2013-07-30 11:02:00,
2013-07-30 05:11:00,60.0,28.0,-100.00,North,352,1.0,15.0,29,0.00,,,0.00,0.000000,,2013-07-30 11:11:00,
2013-07-30 05:22:00,60.0,28.0,-100.00,North,352,1.0,15.0,29,0.00,,,0.00,0.000000,,2013-07-30 11:22:00,
2013-07-30 05:53:00,56.0,29.0,-100.00,East,97,1.0,12.0,36,0.00,,,0.00,0.000000,,2013-07-30 11:53:00,
2013-07-30 06:12:00,56.0,29.0,-100.00,East,97,1.0,12.0,36,0.00,,,0.00,0.000000,,2013-07-30 12:12:00,
2013-07-30 06:22:00,56.0,29.0,-100.00,East,97,1.0,12.0,36,0.00,,,0.00,0.000000,,2013-07-30 12:22:00,
2013-07-30 06:53:00,58.0,31.0,-100.00,WSW,237,0.0,9.0,36,0.00,,,-99.99,0.000000,,2013-07-30 12:53:00,
2013-07-30 07:02:00,58.0,31.0,-100.00,WSW,237,0.0,9.0,36,0.00,,,-99.99,0.000000,,2013-07-30 13:02:00,
2013-07-30 07:12:00,58.0,31.0,-100.00,WSW,237,0.0,9.0,36,0.00,,,-99.99,0.000000,,2013-07-30 13:12:00,
2013-07-30 07:22:00,58.0,31.0,-100.00,WSW,237,0.0,9.0,36,0.00,,,-99.99,0.000000,,2013-07-30 13:22:00,
2013-07-30 08:02:00,55.0,28.0,-100.00,East,82,0.0,7.0,35,0.00,,,0.00,7.000000,,2013-07-30 14:02:00,
2013-07-30 08:12:00,55.0,28.0,-100.00,East,82,0.0,7.0,35,0.00,,,0.00,7.000000,,2013-07-30 14:12:00,
2013-07-30 08:22:00,55.0,28.0,-100.00,East,82,0.0,7.0,35,0.00,,,0.00,7.000000,,2013-07-30 14:22:00,
2013-07-30 08:53:00,56.0,31.0,-100.00,ESE,119,0.0,4.0,38,0.00,,,0.00,33.000000,,2013-07-30 14:53:00,
2013-07-30 09:02:00,56.0,31.0,-100.00,ESE,119,0.0,4.0,38,0.00,,,0.00,33.000000,,2013-07-30 15:02:00,
2013-07-30 09:12:00,56.0,31.0,-100.00,ESE,119,0.0,4.0,38,0.00,,,0.00,33.000000,,2013-07-30 15:12:00,
2013-07-30 09:22:00,56.0,31.0,-100.00,ESE,119,0.0,4.0,38,0.00,,,0.00,33.000000,,2013-07-30 15:22:00,
2013-07-30 10:02:00,60.0,34.0,-100.00,WNW,295,4.0,4.0,37,0.00,,,0.00,160.000000,,2013-07-30 16:02:00,
2013-07-30 10:12:00,60.0,34.0,-100.00,WNW,295,4.0,4.0,37,0.00,,,0.00,160.000000,,2013-07-30 16:12:00,
2013-07-30 10:22:00,60.0,34.0,-100.00,WNW,295,4.0,4.0,37,0.00,,,0.00,160.000000,,2013-07-30 16:22:00,
2013-07-30 11:02:00,63.0,34.0,-100.00,West,268,2.0,7.0,34,0.00,,,0.00,230.000000,,2013-07-30 17:02:00,
2013-07-30 11:12:00,63.0,34.0,-100.00,West,268,2.0,7.0,34,0.00,,,0.00,230.000000,,2013-07-30 17:12:00,
2013-07-30 11:22:00,63.0,34.0,-100.00,West,268,2.0,7.0,34,0.00,,,0.00,230.000000,,2013-07-30 17:22:00,
2013-07-30 11:53:00,73.0,36.0,-100.00,WNW,299,6.0,8.0,26,-99.99,,,0.00,498.000000,,2013-07-30 17:53:00,
2013-07-30 12:02:00,73.0,36.0,-100.00,WNW,299,6.0,8.0,26,-99.99,,,0.00,498.000000,,2013-07-30 18:02:00,
2013-07-30 12:12:00,73.0,36.0,-100.00,WNW,299,6.0,8.0,26,-99.99,,,0.00,498.000000,,2013-07-30 18:12:00,
2013-07-30 12:22:00,73.0,36.0,-100.00,WNW,299,6.0,8.0,26,-99.99,,,0.00,498.000000,,2013-07-30 18:22:00,
2013-07-30 12:52:00,79.0,32.0,-100.00,WNW,291,9.0,13.0,18,0.00,,,0.00,882.000000,,2013-07-30 18:52:00,
2013-07-30 13:02:00,79.0,32.0,-100.00,WNW,291,9.0,13.0,18,0.00,,,0.00,882.000000,,2013-07-30 19:02:00,
2013-07-30 13:12:00,79.0,32.0,-100.00,WNW,291,9.0,13.0,18,0.00,,,0.00,882.000000,,2013-07-30 19:12:00,
2013-07-30 13:22:00,79.0,32.0,-100.00,WNW,291,9.0,13.0,18,0.00,,,0.00,882.000000,,2013-07-30 19:22:00,
2013-07-30 13:52:00,77.0,30.0,-100.00,WSW,255,1.0,14.0,18,0.00,,,0.00,419.000000,,2013-07-30 19:52:00,
2013-07-30 14:02:00,77.0,30.0,-100.00,WSW,255,1.0,14.0,18,0.00,,,0.00,419.000000,,2013-07-30 20:02:00,
2013-07-30 14:12:00,77.0,30.0,-100.00,WSW,255,1.0,14.0,18,0.00,,,0.00,419.000000,,2013-07-30 20:12:00,
2013-07-30 14:22:00,77.0,30.0,-100.00,WSW,255,1.0,14.0,18,0.00,,,0.00,419.000000,,2013-07-30 20:22:00,
2013-07-30 15:02:00,85.0,32.0,-100.00,NNW,342,2.0,10.0,15,0.00,,,0.00,567.000000,,2013-07-30 21:02:00,
2013-07-30 15:12:00,85.0,32.0,-100.00,NNW,342,2.0,10.0,15,0.00,,,0.00,567.000000,,2013-07-30 21:12:00,
2013-07-30 15:22:00,85.0,32.0,-100.00,NNW,342,2.0,10.0,15,0.00,,,0.00,567.000000,,2013-07-30 21:22:00,
2013-07-30 15:53:00,81.0,32.0,-100.00,SSE,149,1.0,11.0,17,0.00,,,0.00,309.000000,,2013-07-30 21:53:00,
2013-07-30 16:02:00,81.0,32.0,-100.00,SSE,149,1.0,11.0,17,0.00,,,0.00,309.000000,,2013-07-30 22:02:00,
2013-07-30 16:11:00,81.0,32.0,-100.00,SSE,149,1.0,11.0,17,0.00,,,0.00,309.000000,,2013-07-30 22:11:00,
2013-07-30 16:22:00,81.0,32.0,-100.00,SSE,149,1.0,11.0,17,0.00,,,0.00,309.000000,,2013-07-30 22:22:00,
2013-07-30 16:52:00,83.0,35.0,-100.00,West,281,9.0,9.0,18,0.00,,,0.00,387.000000,,2013-07-30 22:52:00,
2013-07-30 17:02:00,83.0,35.0,-100.00,West,281,9.0,9.0,18,0.00,,,0.00,387.000000,,2013-07-30 23:02:00,
2013-07-30 17:22:00,83.0,35.0,-100.00,West,281,9.0,9.0,18,0.00,,,0.00,387.000000,,2013-07-30 23:22:00,
2013-07-30 17:53:00,80.0,30.0,-100.00,WNW,290,4.0,16.0,16,0.00,,,0.00,396.000000,,2013-07-30 23:53:00,
2013-07-30 18:02:00,80.0,30.0,-100.00,WNW,290,4.0,16.0,16,0.00,,,0.00,396.000000,,2013-07-31 00:02:00,
2013-07-30 18:12:00,80.0,30.0,-100.00,WNW,290,4.0,16.0,16,0.00,,,0.00,396.000000,,2013-07-31 00:12:00,
2013-07-30 18:22:00,80.0,30.0,-100.00,WNW,290,4.0,16.0,16,0.00,,,0.00,396.000000,,2013-07-31 00:22:00,
2013-07-30 18:53:00,84.0,33.0,-100.00,WNW,287,6.0,12.0,16,0.00,,,-99.99,404.000000,,2013-07-31 00:53:00,
2013-07-30 19:02:00,84.0,33.0,-100.00,WNW,287,6.0,12.0,16,0.00,,,-99.99,404.000000,,2013-07-31 01:02:00,
2013-07-30 19:12:00,84.0,33.0,-100.00,WNW,287,6.0,12.0,16,0.00,,,-99.99,404.000000,,2013-07-31 01:12:00,
2013-07-30 19:22:00,84.0,33.0,-100.00,WNW,287,6.0,12.0,16,0.00,,,-99.99,404.000000,,2013-07-31 01:22:00,
2013-07-30 19:52:00,78.0,31.0,-100.00,West,271,3.0,13.0,18,0.00,,,0.00,188.000000,,2013-07-31 01:52:00,
2013-07-30 20:02:00,78.0,31.0,-100.00,West,271,3.0,13.0,18,0.00,,,0.00,188.000000,,2013-07-31 02:02:00,
2013-07-30 20:12:00,78.0,31.0,-100.00,West,271,3.0,13.0,18,0.00,,,0.00,188.000000,,2013-07-31 02:12:00,
2013-07-30 20:22:00,78.0,31.0,-100.00,West,271,3.0,13.0,18,0.00,,,0.00,188.000000,,2013-07-31 02:22:00,
2013-07-30 20:52:00,80.0,28.0,-100.00,NE,50,0.0,10.0,15,0.00,,,0.00,176.000000,,2013-07-31 02:52:00,
2013-07-30 21:02:00,80.0,28.0,-100.00,NE,50,0.0,10.0,15,0.00,,,0.00,176.000000,,2013-07-31 03:02:00,
2013-07-30 21:12:00,80.0,28.0,-100.00,NE,50,0.0,10.0,15,0.00,,,0.00,176.000000,,2013-07-31 03:12:00,
2013-07-30 21:22:00,80.0,28.0,-100.00,NE,50,0.0,10.0,15,0.00,,,0.00,176.000000,,2013-07-31 03:22:00,
2013-07-30 21:52:00,70.0,30.0,-100.00,SE,141,1.0,6.0,23,0.00,,,-99.99,54.000000,,2013-07-31 03:52:00,
2013-07-30 22:02:00,70.0,30.0,-100.00,SE,141,1.0,6.0,23,0.00,,,-99.99,54.000000,,2013-07-31 04:02:00,
2013-07-30 22:12:00,70.0,30.0,-100.00,SE,141,1.0,6.0,23,0.00,,,-99.99,54.000000,,2013-07-31 04:12:00,
2013-07-30 22:22:00,70.0,30.0,-100.00,SE,141,1.0,6.0,23,0.00,,,-99.99,54.000000,,2013-07-31 04:22:00,
2013-07-30 22:52:00,66.0,32.0,-100.00,SE,132,2.0,6.0,28,0.00,,,0.00,2.000000,,2013-07-31 04:52:00,
2013-07-30 23:02:00,66.0,32.0,-100.00,SE,132,2.0,6.0,28,0.00,,,0.00,2.000000,,2013-07-31 05:02:00,
2013-07-30 23:11:00,66.0,32.0,-100.00,SE,132,2.0,6.0,28,0.00,,,0.00,2.000000,,2013-07-31 05:11:00,
2013-07-30 23:22:00,66.0,32.0,-100.00,SE,132,2.0,6.0,28,0.00,,,0.00,2.000000,,2013-07-31 05:22:00,
2013-07-30 23:52:00,60.0,31.0,-100.00,SE,137,1.0,5.0,33,0.00,,,0.00,0.000000,,2013-07-31 05:52:00,